sensor_id;sensor_type;location;lat;lon;timestamp;pressure;altitude;pressure_sealevel;temperature;humidity
67397;BME280;57728;50.448;18.824;2023-11-22T00:00:24;98091.00;;;2.13;77.50
67397;BME280;57728;50.448;18.824;2023-11-22T00:02:25;98082.16;;;2.04;77.56
67397;BME280;57728;50.448;18.824;2023-11-22T00:04:29;98113.59;;;2.27;77.64
67397;BME280;57728;50.448;18.824;2023-11-22T00:06:31;98107.75;;;2.15;77.47
67397;BME280;57728;50.448;18.824;2023-11-22T00:08:32;98123.84;;;2.23;77.17
67397;BME280;57728;50.448;18.824;2023-11-22T00:10:34;98112.31;;;2.14;77.42
67397;BME280;57728;50.448;18.824;2023-11-22T00:12:36;98134.94;;;2.20;77.30
67397;BME280;57728;50.448;18.824;2023-11-22T00:14:39;98137.31;;;2.15;76.91
67397;BME280;57728;50.448;18.824;2023-11-22T00:16:40;98133.16;;;2.12;77.07
67397;BME280;57728;50.448;18.824;2023-11-22T00:18:42;98135.00;;;2.03;77.33
67397;BME280;57728;50.448;18.824;2023-11-22T00:20:43;98096.81;;;1.85;77.53
67397;BME280;57728;50.448;18.824;2023-11-22T00:22:44;98123.06;;;2.06;77.42
67397;BME280;57728;50.448;18.824;2023-11-22T00:24:49;98130.28;;;2.14;77.56
67397;BME280;57728;50.448;18.824;2023-11-22T00:26:51;98081.56;;;1.85;77.22
67397;BME280;57728;50.448;18.824;2023-11-22T00:28:52;98147.00;;;2.24;77.44
67397;BME280;57728;50.448;18.824;2023-11-22T00:30:55;98135.28;;;2.17;77.34
67397;BME280;57728;50.448;18.824;2023-11-22T00:32:56;98153.72;;;2.28;77.24
67397;BME280;57728;50.448;18.824;2023-11-22T00:34:58;98144.66;;;2.29;77.14
67397;BME280;57728;50.448;18.824;2023-11-22T00:37:00;98131.59;;;2.18;77.23
67397;BME280;57728;50.448;18.824;2023-11-22T00:39:01;98150.31;;;2.34;77.20
67397;BME280;57728;50.448;18.824;2023-11-22T00:41:02;98148.50;;;2.35;77.10
67397;BME280;57728;50.448;18.824;2023-11-22T00:43:04;98147.34;;;2.29;76.68
67397;BME280;57728;50.448;18.824;2023-11-22T00:45:06;98141.31;;;2.19;76.63
67397;BME280;57728;50.448;18.824;2023-11-22T00:47:07;98155.25;;;2.22;76.72
67397;BME280;57728;50.448;18.824;2023-11-22T00:49:10;98128.44;;;2.06;76.55
67397;BME280;57728;50.448;18.824;2023-11-22T00:51:12;98151.41;;;2.17;76.75
67397;BME280;57728;50.448;18.824;2023-11-22T00:53:13;98162.50;;;2.14;76.45
67397;BME280;57728;50.448;18.824;2023-11-22T00:55:16;98161.00;;;2.11;76.35
67397;BME280;57728;50.448;18.824;2023-11-22T00:57:18;98150.31;;;1.95;76.40
67397;BME280;57728;50.448;18.824;2023-11-22T00:59:19;98153.84;;;1.95;76.74
67397;BME280;57728;50.448;18.824;2023-11-22T01:01:21;98173.25;;;2.14;76.94
67397;BME280;57728;50.448;18.824;2023-11-22T01:03:22;98179.47;;;2.14;76.50
67397;BME280;57728;50.448;18.824;2023-11-22T01:05:23;98165.75;;;2.01;76.34
67397;BME280;57728;50.448;18.824;2023-11-22T01:07:26;98179.31;;;2.08;76.27
67397;BME280;57728;50.448;18.824;2023-11-22T01:09:27;98186.19;;;2.02;76.19
67397;BME280;57728;50.448;18.824;2023-11-22T01:11:29;98149.50;;;1.86;76.24
67397;BME280;57728;50.448;18.824;2023-11-22T01:13:32;98163.09;;;1.84;76.41
67397;BME280;57728;50.448;18.824;2023-11-22T01:15:41;98141.81;;;1.75;76.54
67397;BME280;57728;50.448;18.824;2023-11-22T01:17:42;98182.00;;;1.99;76.30
67397;BME280;57728;50.448;18.824;2023-11-22T01:19:44;98177.50;;;2.00;76.36
67397;BME280;57728;50.448;18.824;2023-11-22T01:21:46;98152.19;;;1.86;76.34
67397;BME280;57728;50.448;18.824;2023-11-22T01:23:48;98177.66;;;1.98;76.34
67397;BME280;57728;50.448;18.824;2023-11-22T01:25:50;98154.03;;;1.85;76.40
67397;BME280;57728;50.448;18.824;2023-11-22T01:27:51;98173.66;;;1.94;76.06
67397;BME280;57728;50.448;18.824;2023-11-22T01:29:53;98165.78;;;1.84;75.99
67397;BME280;57728;50.448;18.824;2023-11-22T01:31:55;98165.28;;;1.81;75.99
67397;BME280;57728;50.448;18.824;2023-11-22T01:33:57;98184.75;;;1.91;75.97
67397;BME280;57728;50.448;18.824;2023-11-22T01:35:59;98169.00;;;1.80;76.05
67397;BME280;57728;50.448;18.824;2023-11-22T01:38:01;98184.91;;;1.89;75.78
67397;BME280;57728;50.448;18.824;2023-11-22T01:40:05;98190.09;;;1.91;76.15
67397;BME280;57728;50.448;18.824;2023-11-22T01:42:09;98115.38;;;1.47;75.76
67397;BME280;57728;50.448;18.824;2023-11-22T01:44:11;98145.22;;;1.60;75.66
67397;BME280;57728;50.448;18.824;2023-11-22T01:46:22;98165.44;;;1.79;75.84
67397;BME280;57728;50.448;18.824;2023-11-22T01:48:25;98172.50;;;1.80;75.76
67397;BME280;57728;50.448;18.824;2023-11-22T01:50:28;98177.22;;;1.78;75.61
67397;BME280;57728;50.448;18.824;2023-11-22T01:52:29;98198.16;;;1.91;75.45
67397;BME280;57728;50.448;18.824;2023-11-22T01:54:31;98196.97;;;1.94;75.61
67397;BME280;57728;50.448;18.824;2023-11-22T01:56:36;98205.16;;;2.00;75.87
67397;BME280;57728;50.448;18.824;2023-11-22T01:58:39;98208.38;;;2.04;75.47
67397;BME280;57728;50.448;18.824;2023-11-22T02:00:48;98211.41;;;1.93;75.21
67397;BME280;57728;50.448;18.824;2023-11-22T02:02:52;98210.03;;;2.05;75.32
67397;BME280;57728;50.448;18.824;2023-11-22T02:04:54;98193.63;;;1.92;75.24
67397;BME280;57728;50.448;18.824;2023-11-22T02:06:56;98205.53;;;1.97;75.13
67397;BME280;57728;50.448;18.824;2023-11-22T02:08:58;98193.78;;;1.90;75.05
67397;BME280;57728;50.448;18.824;2023-11-22T02:11:01;98203.38;;;1.93;74.87
67397;BME280;57728;50.448;18.824;2023-11-22T02:13:06;98183.59;;;1.77;75.00
67397;BME280;57728;50.448;18.824;2023-11-22T02:15:09;98218.13;;;1.97;75.08
67397;BME280;57728;50.448;18.824;2023-11-22T02:17:10;98221.13;;;1.94;74.86
67397;BME280;57728;50.448;18.824;2023-11-22T02:19:17;98212.25;;;1.77;74.97
67397;BME280;57728;50.448;18.824;2023-11-22T02:21:18;98208.75;;;1.76;75.01
67397;BME280;57728;50.448;18.824;2023-11-22T02:23:22;98201.56;;;1.68;74.98
67397;BME280;57728;50.448;18.824;2023-11-22T02:25:24;98239.09;;;1.85;75.20
67397;BME280;57728;50.448;18.824;2023-11-22T02:27:25;98235.41;;;1.86;75.36
67397;BME280;57728;50.448;18.824;2023-11-22T02:29:26;98195.84;;;1.55;75.16
67397;BME280;57728;50.448;18.824;2023-11-22T02:31:30;98254.56;;;1.83;75.10
67397;BME280;57728;50.448;18.824;2023-11-22T02:33:31;98249.53;;;1.80;75.24
67397;BME280;57728;50.448;18.824;2023-11-22T02:35:33;98252.53;;;1.77;75.12
67397;BME280;57728;50.448;18.824;2023-11-22T02:37:35;98209.28;;;1.47;75.01
67397;BME280;57728;50.448;18.824;2023-11-22T02:39:56;98244.34;;;1.70;75.37
67397;BME280;57728;50.448;18.824;2023-11-22T02:42:05;98222.19;;;1.60;75.16
67397;BME280;57728;50.448;18.824;2023-11-22T02:44:07;98239.13;;;1.68;75.09
67397;BME280;57728;50.448;18.824;2023-11-22T02:46:09;98232.78;;;1.61;75.08
67397;BME280;57728;50.448;18.824;2023-11-22T02:48:10;98213.81;;;1.46;75.01
67397;BME280;57728;50.448;18.824;2023-11-22T02:50:13;98246.84;;;1.55;75.00
67397;BME280;57728;50.448;18.824;2023-11-22T02:52:15;98244.16;;;1.55;75.39
67397;BME280;57728;50.448;18.824;2023-11-22T02:54:16;98234.09;;;1.49;75.54
67397;BME280;57728;50.448;18.824;2023-11-22T02:56:19;98234.94;;;1.41;75.35
67397;BME280;57728;50.448;18.824;2023-11-22T02:58:20;98224.88;;;1.35;75.58
67397;BME280;57728;50.448;18.824;2023-11-22T03:00:21;98267.31;;;1.56;75.76
67397;BME280;57728;50.448;18.824;2023-11-22T03:02:24;98244.00;;;1.40;75.68
67397;BME280;57728;50.448;18.824;2023-11-22T03:04:26;98242.66;;;1.36;75.54
67397;BME280;57728;50.448;18.824;2023-11-22T03:06:27;98261.59;;;1.34;75.78
67397;BME280;57728;50.448;18.824;2023-11-22T03:08:29;98273.53;;;1.40;75.83
67397;BME280;57728;50.448;18.824;2023-11-22T03:10:31;98273.34;;;1.33;75.93
67397;BME280;57728;50.448;18.824;2023-11-22T03:12:33;98281.56;;;1.32;75.71
67397;BME280;57728;50.448;18.824;2023-11-22T03:14:35;98290.06;;;1.27;75.83
67397;BME280;57728;50.448;18.824;2023-11-22T03:16:39;98287.41;;;1.19;75.77
67397;BME280;57728;50.448;18.824;2023-11-22T03:18:40;98308.72;;;1.29;75.92
67397;BME280;57728;50.448;18.824;2023-11-22T03:20:43;98311.72;;;1.34;75.99
67397;BME280;57728;50.448;18.824;2023-11-22T03:22:44;98311.22;;;1.30;75.81
67397;BME280;57728;50.448;18.824;2023-11-22T03:24:46;98323.31;;;1.34;75.42
67397;BME280;57728;50.448;18.824;2023-11-22T03:26:48;98311.22;;;1.22;75.35
67397;BME280;57728;50.448;18.824;2023-11-22T03:28:49;98321.97;;;1.30;75.38
67397;BME280;57728;50.448;18.824;2023-11-22T03:30:50;98317.41;;;1.23;75.14
67397;BME280;57728;50.448;18.824;2023-11-22T03:32:52;98319.44;;;1.29;75.14
67397;BME280;57728;50.448;18.824;2023-11-22T03:34:55;98331.16;;;1.28;75.14
67397;BME280;57728;50.448;18.824;2023-11-22T03:36:58;98224.59;;;0.62;74.93
67397;BME280;57728;50.448;18.824;2023-11-22T03:39:00;98275.22;;;0.82;74.76
67397;BME280;57728;50.448;18.824;2023-11-22T03:41:01;98350.44;;;1.23;75.13
67397;BME280;57728;50.448;18.824;2023-11-22T03:43:02;98321.88;;;1.06;74.92
67397;BME280;57728;50.448;18.824;2023-11-22T03:45:05;98356.97;;;1.20;74.76
67397;BME280;57728;50.448;18.824;2023-11-22T03:47:07;98294.31;;;0.79;74.92
67397;BME280;57728;50.448;18.824;2023-11-22T03:49:10;98294.69;;;0.84;74.90
67397;BME280;57728;50.448;18.824;2023-11-22T03:51:12;98355.94;;;1.22;74.82
67397;BME280;57728;50.448;18.824;2023-11-22T03:53:13;98362.34;;;1.20;74.76
67397;BME280;57728;50.448;18.824;2023-11-22T03:55:14;98322.50;;;0.91;74.69
67397;BME280;57728;50.448;18.824;2023-11-22T03:57:16;98368.38;;;1.23;74.80
67397;BME280;57728;50.448;18.824;2023-11-22T03:59:18;98376.09;;;1.26;74.97
67397;BME280;57728;50.448;18.824;2023-11-22T04:01:19;98379.63;;;1.26;74.63
67397;BME280;57728;50.448;18.824;2023-11-22T04:03:22;98325.69;;;0.87;74.47
67397;BME280;57728;50.448;18.824;2023-11-22T04:05:23;98353.03;;;0.98;74.76
67397;BME280;57728;50.448;18.824;2023-11-22T04:07:24;98384.09;;;1.09;74.67
67397;BME280;57728;50.448;18.824;2023-11-22T04:09:26;98364.25;;;0.94;74.69
67397;BME280;57728;50.448;18.824;2023-11-22T04:11:28;98326.44;;;0.71;74.68
67397;BME280;57728;50.448;18.824;2023-11-22T04:13:30;98400.34;;;1.08;74.71
67397;BME280;57728;50.448;18.824;2023-11-22T04:15:32;98388.53;;;0.92;74.58
67397;BME280;57728;50.448;18.824;2023-11-22T04:17:33;98401.28;;;0.98;74.90
67397;BME280;57728;50.448;18.824;2023-11-22T04:19:35;98398.56;;;0.90;74.87
67397;BME280;57728;50.448;18.824;2023-11-22T04:21:36;98331.69;;;0.46;75.00
67397;BME280;57728;50.448;18.824;2023-11-22T04:23:39;98400.22;;;0.83;75.02
67397;BME280;57728;50.448;18.824;2023-11-22T04:25:41;98404.19;;;0.79;74.83
67397;BME280;57728;50.448;18.824;2023-11-22T04:27:43;98411.63;;;0.85;74.98
67397;BME280;57728;50.448;18.824;2023-11-22T04:29:44;98415.78;;;0.79;75.09
67397;BME280;57728;50.448;18.824;2023-11-22T04:31:46;98438.47;;;0.93;74.86
67397;BME280;57728;50.448;18.824;2023-11-22T04:33:48;98442.00;;;0.94;75.24
67397;BME280;57728;50.448;18.824;2023-11-22T04:35:51;98428.88;;;0.82;75.25
67397;BME280;57728;50.448;18.824;2023-11-22T04:37:52;98454.88;;;0.90;75.16
67397;BME280;57728;50.448;18.824;2023-11-22T04:39:54;98447.09;;;0.79;75.38
67397;BME280;57728;50.448;18.824;2023-11-22T04:41:55;98442.06;;;0.76;75.37
67397;BME280;57728;50.448;18.824;2023-11-22T04:43:56;98462.91;;;0.90;75.52
67397;BME280;57728;50.448;18.824;2023-11-22T04:45:58;98449.09;;;0.77;75.27
67397;BME280;57728;50.448;18.824;2023-11-22T04:48:00;98465.91;;;0.87;75.53
67397;BME280;57728;50.448;18.824;2023-11-22T04:50:02;98478.72;;;1.01;75.85
67397;BME280;57728;50.448;18.824;2023-11-22T04:52:04;98484.94;;;1.02;75.43
67397;BME280;57728;50.448;18.824;2023-11-22T04:54:05;98439.69;;;0.73;75.29
67397;BME280;57728;50.448;18.824;2023-11-22T04:56:07;98447.09;;;0.79;75.22
67397;BME280;57728;50.448;18.824;2023-11-22T04:58:09;98458.13;;;0.76;75.24
67397;BME280;57728;50.448;18.824;2023-11-22T05:00:10;98483.91;;;0.95;75.35
67397;BME280;57728;50.448;18.824;2023-11-22T05:02:12;98480.19;;;0.96;75.31
67397;BME280;57728;50.448;18.824;2023-11-22T05:04:14;98451.09;;;0.75;75.46
67397;BME280;57728;50.448;18.824;2023-11-22T05:06:16;98486.09;;;0.99;75.75
67397;BME280;57728;50.448;18.824;2023-11-22T05:08:17;98474.34;;;0.92;75.48
67397;BME280;57728;50.448;18.824;2023-11-22T05:10:19;98495.34;;;1.05;75.27
67397;BME280;57728;50.448;18.824;2023-11-22T05:12:20;98468.97;;;0.92;75.31
67397;BME280;57728;50.448;18.824;2023-11-22T05:14:22;98426.25;;;0.64;74.96
67397;BME280;57728;50.448;18.824;2023-11-22T05:16:25;98472.25;;;0.86;74.97
67397;BME280;57728;50.448;18.824;2023-11-22T05:18:26;98472.66;;;0.91;74.98
67397;BME280;57728;50.448;18.824;2023-11-22T05:20:28;98501.03;;;1.02;74.48
67397;BME280;57728;50.448;18.824;2023-11-22T05:22:29;98504.72;;;1.01;74.61
67397;BME280;57728;50.448;18.824;2023-11-22T05:24:31;98482.16;;;0.85;74.68
67397;BME280;57728;50.448;18.824;2023-11-22T05:26:32;98492.63;;;0.97;74.87
67397;BME280;57728;50.448;18.824;2023-11-22T05:28:34;98520.69;;;1.11;74.94
67397;BME280;57728;50.448;18.824;2023-11-22T05:30:35;98524.03;;;1.13;74.71
67397;BME280;57728;50.448;18.824;2023-11-22T05:32:36;98498.13;;;0.95;74.55
67397;BME280;57728;50.448;18.824;2023-11-22T05:34:38;98527.75;;;1.12;74.49
67397;BME280;57728;50.448;18.824;2023-11-22T05:36:41;98529.25;;;1.14;74.58
67397;BME280;57728;50.448;18.824;2023-11-22T05:38:42;98532.47;;;1.18;74.62
67397;BME280;57728;50.448;18.824;2023-11-22T05:40:44;98535.16;;;1.18;74.30
67397;BME280;57728;50.448;18.824;2023-11-22T05:42:46;98507.88;;;0.96;74.10
67397;BME280;57728;50.448;18.824;2023-11-22T05:44:47;98536.47;;;1.14;74.17
67397;BME280;57728;50.448;18.824;2023-11-22T05:46:49;98545.34;;;1.14;74.04
67397;BME280;57728;50.448;18.824;2023-11-22T05:48:56;98546.19;;;1.15;74.13
67397;BME280;57728;50.448;18.824;2023-11-22T05:50:57;98549.38;;;1.18;74.09
67397;BME280;57728;50.448;18.824;2023-11-22T05:52:59;98552.06;;;1.18;73.60
67397;BME280;57728;50.448;18.824;2023-11-22T05:55:01;98561.44;;;1.14;73.49
67397;BME280;57728;50.448;18.824;2023-11-22T05:57:04;98564.28;;;1.13;73.69
67397;BME280;57728;50.448;18.824;2023-11-22T05:59:06;98568.81;;;1.12;73.50
67397;BME280;57728;50.448;18.824;2023-11-22T06:01:08;98541.69;;;0.89;73.34
67397;BME280;57728;50.448;18.824;2023-11-22T06:03:10;98572.13;;;1.06;73.46
67397;BME280;57728;50.448;18.824;2023-11-22T06:05:13;98574.28;;;1.02;73.31
67397;BME280;57728;50.448;18.824;2023-11-22T06:07:14;98576.56;;;0.97;73.36
67397;BME280;57728;50.448;18.824;2023-11-22T06:09:15;98530.44;;;0.67;73.29
67397;BME280;57728;50.448;18.824;2023-11-22T06:11:17;98584.25;;;0.92;73.29
67397;BME280;57728;50.448;18.824;2023-11-22T06:13:20;98546.34;;;0.69;73.17
67397;BME280;57728;50.448;18.824;2023-11-22T06:15:21;98573.97;;;0.88;73.30
67397;BME280;57728;50.448;18.824;2023-11-22T06:17:25;98579.50;;;0.86;73.45
67397;BME280;57728;50.448;18.824;2023-11-22T06:19:26;98547.50;;;0.66;73.48
67397;BME280;57728;50.448;18.824;2023-11-22T06:21:27;98505.44;;;0.41;73.29
67397;BME280;57728;50.448;18.824;2023-11-22T06:23:29;98504.44;;;0.42;73.51
67397;BME280;57728;50.448;18.824;2023-11-22T06:25:30;98576.31;;;0.64;73.33
67397;BME280;57728;50.448;18.824;2023-11-22T06:27:31;98517.38;;;0.46;73.36
67397;BME280;57728;50.448;18.824;2023-11-22T06:29:34;98562.19;;;0.80;73.49
67397;BME280;57728;50.448;18.824;2023-11-22T06:31:36;98556.63;;;0.74;73.14
67397;BME280;57728;50.448;18.824;2023-11-22T06:33:37;98566.97;;;0.68;73.18
67397;BME280;57728;50.448;18.824;2023-11-22T06:35:39;98578.69;;;0.67;73.21
67397;BME280;57728;50.448;18.824;2023-11-22T06:37:41;98590.31;;;0.76;73.22
67397;BME280;57728;50.448;18.824;2023-11-22T06:39:42;98528.72;;;0.40;73.21
67397;BME280;57728;50.448;18.824;2023-11-22T06:41:44;98584.34;;;0.64;73.39
67397;BME280;57728;50.448;18.824;2023-11-22T06:43:45;98598.34;;;0.76;73.49
67397;BME280;57728;50.448;18.824;2023-11-22T06:45:47;98581.50;;;0.66;73.16
67397;BME280;57728;50.448;18.824;2023-11-22T06:47:49;98573.56;;;0.56;73.26
67397;BME280;57728;50.448;18.824;2023-11-22T06:49:51;98539.19;;;0.33;73.32
67397;BME280;57728;50.448;18.824;2023-11-22T06:51:52;98574.53;;;0.55;73.11
67397;BME280;57728;50.448;18.824;2023-11-22T06:53:54;98595.47;;;0.70;73.44
67397;BME280;57728;50.448;18.824;2023-11-22T06:55:55;98617.19;;;0.84;73.51
67397;BME280;57728;50.448;18.824;2023-11-22T06:57:59;98613.34;;;0.87;73.19
67397;BME280;57728;50.448;18.824;2023-11-22T07:00:02;98623.59;;;0.92;73.01
67397;BME280;57728;50.448;18.824;2023-11-22T07:02:10;98598.06;;;0.79;72.89
67397;BME280;57728;50.448;18.824;2023-11-22T07:04:11;98568.28;;;0.64;73.05
67397;BME280;57728;50.448;18.824;2023-11-22T07:06:13;98634.97;;;1.03;72.94
67397;BME280;57728;50.448;18.824;2023-11-22T07:08:17;98578.31;;;0.62;72.75
67397;BME280;57728;50.448;18.824;2023-11-22T07:10:18;98606.38;;;0.76;72.57
67397;BME280;57728;50.448;18.824;2023-11-22T07:12:22;98650.03;;;1.05;72.69
67397;BME280;57728;50.448;18.824;2023-11-22T07:14:23;98643.53;;;1.07;72.58
67397;BME280;57728;50.448;18.824;2023-11-22T07:16:26;98637.00;;;0.92;72.38
67397;BME280;57728;50.448;18.824;2023-11-22T07:18:28;98635.72;;;0.96;72.58
67397;BME280;57728;50.448;18.824;2023-11-22T07:20:29;98655.78;;;1.10;72.48
67397;BME280;57728;50.448;18.824;2023-11-22T07:22:31;98538.88;;;0.37;72.47
67397;BME280;57728;50.448;18.824;2023-11-22T07:24:33;98585.03;;;0.66;72.37
67397;BME280;57728;50.448;18.824;2023-11-22T07:26:35;98665.53;;;1.11;72.48
67397;BME280;57728;50.448;18.824;2023-11-22T07:28:36;98668.88;;;1.13;72.49
67397;BME280;57728;50.448;18.824;2023-11-22T07:30:38;98685.66;;;1.15;72.23
67397;BME280;57728;50.448;18.824;2023-11-22T07:32:42;98685.34;;;1.18;72.37
67397;BME280;57728;50.448;18.824;2023-11-22T07:34:43;98656.41;;;1.03;72.25
67397;BME280;57728;50.448;18.824;2023-11-22T07:36:45;98628.97;;;0.92;72.29
67397;BME280;57728;50.448;18.824;2023-11-22T07:38:48;98660.16;;;1.11;72.13
67397;BME280;57728;50.448;18.824;2023-11-22T07:40:49;98701.28;;;1.19;72.20
67397;BME280;57728;50.448;18.824;2023-11-22T07:42:52;98687.72;;;1.21;71.92
67397;BME280;57728;50.448;18.824;2023-11-22T07:44:53;98638.25;;;0.97;72.04
67397;BME280;57728;50.448;18.824;2023-11-22T07:46:56;98681.88;;;1.26;72.06
67397;BME280;57728;50.448;18.824;2023-11-22T07:49:01;98677.06;;;1.29;72.00
67397;BME280;57728;50.448;18.824;2023-11-22T07:51:03;98668.28;;;1.19;71.64
67397;BME280;57728;50.448;18.824;2023-11-22T07:53:06;98683.09;;;1.31;71.74
67397;BME280;57728;50.448;18.824;2023-11-22T07:55:10;98690.16;;;1.32;71.46
67397;BME280;57728;50.448;18.824;2023-11-22T07:57:11;98695.38;;;1.34;71.56
67397;BME280;57728;50.448;18.824;2023-11-22T07:59:12;98700.91;;;1.32;71.29
67397;BME280;57728;50.448;18.824;2023-11-22T08:01:14;98694.69;;;1.32;71.40
67397;BME280;57728;50.448;18.824;2023-11-22T08:03:16;98656.56;;;1.02;71.49
67397;BME280;57728;50.448;18.824;2023-11-22T08:05:19;98712.47;;;1.33;71.41
67397;BME280;57728;50.448;18.824;2023-11-22T08:07:25;98670.88;;;1.11;71.27
67397;BME280;57728;50.448;18.824;2023-11-22T08:09:27;98694.69;;;1.32;71.61
67397;BME280;57728;50.448;18.824;2023-11-22T08:11:33;98701.72;;;1.33;71.38
67397;BME280;57728;50.448;18.824;2023-11-22T08:13:35;98710.00;;;1.40;71.21
67397;BME280;57728;50.448;18.824;2023-11-22T08:15:37;98701.88;;;1.31;70.86
67397;BME280;57728;50.448;18.824;2023-11-22T08:17:39;98675.53;;;1.09;70.70
67397;BME280;57728;50.448;18.824;2023-11-22T08:19:42;98715.22;;;1.41;71.11
67397;BME280;57728;50.448;18.824;2023-11-22T08:21:43;98719.59;;;1.42;70.82
67397;BME280;57728;50.448;18.824;2023-11-22T08:23:47;98725.13;;;1.41;70.95
67397;BME280;57728;50.448;18.824;2023-11-22T08:25:50;98642.44;;;1.00;70.80
67397;BME280;57728;50.448;18.824;2023-11-22T08:27:52;98717.59;;;1.44;71.07
67397;BME280;57728;50.448;18.824;2023-11-22T08:29:54;98722.94;;;1.44;70.88
67397;BME280;57728;50.448;18.824;2023-11-22T08:31:56;98732.03;;;1.43;70.72
67397;BME280;57728;50.448;18.824;2023-11-22T08:33:58;98708.88;;;1.24;70.47
67397;BME280;57728;50.448;18.824;2023-11-22T08:36:00;98704.88;;;1.10;70.39
67397;BME280;57728;50.448;18.824;2023-11-22T08:38:02;98734.78;;;1.33;70.55
67397;BME280;57728;50.448;18.824;2023-11-22T08:40:06;98700.47;;;1.19;70.58
67397;BME280;57728;50.448;18.824;2023-11-22T08:42:08;98744.13;;;1.47;70.64
67397;BME280;57728;50.448;18.824;2023-11-22T08:44:11;98734.38;;;1.46;70.12
67397;BME280;57728;50.448;18.824;2023-11-22T08:46:12;98753.75;;;1.58;69.93
67397;BME280;57728;50.448;18.824;2023-11-22T08:48:15;98727.09;;;1.38;69.64
67397;BME280;57728;50.448;18.824;2023-11-22T08:50:18;98716.50;;;1.37;69.54
67397;BME280;57728;50.448;18.824;2023-11-22T08:52:20;98739.66;;;1.56;69.46
67397;BME280;57728;50.448;18.824;2023-11-22T08:54:22;98743.03;;;1.58;69.70
67397;BME280;57728;50.448;18.824;2023-11-22T08:56:25;98739.34;;;1.59;69.47
67397;BME280;57728;50.448;18.824;2023-11-22T08:58:26;98741.88;;;1.61;69.36
67397;BME280;57728;50.448;18.824;2023-11-22T09:00:27;98745.69;;;1.58;69.14
67397;BME280;57728;50.448;18.824;2023-11-22T09:02:33;98674.03;;;1.06;69.10
67397;BME280;57728;50.448;18.824;2023-11-22T09:04:35;98753.00;;;1.48;69.07
67397;BME280;57728;50.448;18.824;2023-11-22T09:06:36;98750.25;;;1.40;69.17
67397;BME280;57728;50.448;18.824;2023-11-22T09:08:38;98757.72;;;1.28;69.20
67397;BME280;57728;50.448;18.824;2023-11-22T09:10:43;98687.69;;;0.95;69.08
67397;BME280;57728;50.448;18.824;2023-11-22T09:12:45;98771.13;;;1.46;68.89
67397;BME280;57728;50.448;18.824;2023-11-22T09:14:48;98740.47;;;1.30;68.91
67397;BME280;57728;50.448;18.824;2023-11-22T09:16:51;98688.19;;;0.98;68.80
67397;BME280;57728;50.448;18.824;2023-11-22T09:18:55;98729.88;;;1.29;68.82
67397;BME280;57728;50.448;18.824;2023-11-22T09:20:58;98730.31;;;1.24;68.71
67397;BME280;57728;50.448;18.824;2023-11-22T09:23:00;98745.34;;;1.35;68.73
67397;BME280;57728;50.448;18.824;2023-11-22T09:25:01;98757.16;;;1.42;69.00
67397;BME280;57728;50.448;18.824;2023-11-22T09:27:04;98734.56;;;1.27;68.65
67397;BME280;57728;50.448;18.824;2023-11-22T09:29:12;98755.25;;;1.34;68.58
67397;BME280;57728;50.448;18.824;2023-11-22T09:31:16;98754.47;;;1.24;68.00
67397;BME280;57728;50.448;18.824;2023-11-22T09:33:21;98752.41;;;1.18;68.01
67397;BME280;57728;50.448;18.824;2023-11-22T09:35:23;98775.41;;;1.38;68.29
67397;BME280;57728;50.448;18.824;2023-11-22T09:37:25;98724.84;;;1.08;68.02
67397;BME280;57728;50.448;18.824;2023-11-22T09:39:27;98787.34;;;1.44;68.09
67397;BME280;57728;50.448;18.824;2023-11-22T09:41:29;98796.78;;;1.48;68.09
67397;BME280;57728;50.448;18.824;2023-11-22T09:43:31;98799.53;;;1.57;67.80
67397;BME280;57728;50.448;18.824;2023-11-22T09:45:32;98789.94;;;1.54;67.88
67397;BME280;57728;50.448;18.824;2023-11-22T09:47:34;98796.63;;;1.68;68.03
67397;BME280;57728;50.448;18.824;2023-11-22T09:49:40;98785.13;;;1.58;67.64
67397;BME280;57728;50.448;18.824;2023-11-22T09:51:43;98773.34;;;1.50;67.48
67397;BME280;57728;50.448;18.824;2023-11-22T09:56:02;98797.16;;;1.71;67.79
67397;BME280;57728;50.448;18.824;2023-11-22T09:58:05;98774.41;;;1.58;67.60
67397;BME280;57728;50.448;18.824;2023-11-22T10:00:09;98767.03;;;1.60;67.64
67397;BME280;57728;50.448;18.824;2023-11-22T10:02:14;98760.50;;;1.62;67.60
67397;BME280;57728;50.448;18.824;2023-11-22T10:04:16;98724.06;;;1.33;67.70
67397;BME280;57728;50.448;18.824;2023-11-22T10:06:18;98712.56;;;1.23;67.59
67397;BME280;57728;50.448;18.824;2023-11-22T10:08:19;98778.69;;;1.68;67.74
67397;BME280;57728;50.448;18.824;2023-11-22T10:10:24;98703.75;;;1.13;67.93
67397;BME280;57728;50.448;18.824;2023-11-22T10:12:29;98752.47;;;1.44;67.98
67397;BME280;57728;50.448;18.824;2023-11-22T10:14:30;98764.41;;;1.50;68.04
67397;BME280;57728;50.448;18.824;2023-11-22T10:16:34;98740.81;;;1.35;68.09
67397;BME280;57728;50.448;18.824;2023-11-22T10:18:41;98786.13;;;1.57;68.40
67397;BME280;57728;50.448;18.824;2023-11-22T10:20:45;98776.41;;;1.56;68.27
67397;BME280;57728;50.448;18.824;2023-11-22T10:22:48;98768.34;;;1.56;68.32
67397;BME280;57728;50.448;18.824;2023-11-22T10:24:50;98753.00;;;1.48;68.23
67397;BME280;57728;50.448;18.824;2023-11-22T10:26:52;98760.44;;;1.54;68.46
67397;BME280;57728;50.448;18.824;2023-11-22T10:28:55;98763.13;;;1.54;68.28
67397;BME280;57728;50.448;18.824;2023-11-22T10:30:58;98768.34;;;1.56;68.58
67397;BME280;57728;50.448;18.824;2023-11-22T10:33:00;98774.56;;;1.56;68.66
67397;BME280;57728;50.448;18.824;2023-11-22T10:35:01;98770.72;;;1.59;68.74
67397;BME280;57728;50.448;18.824;2023-11-22T10:37:05;98745.19;;;1.36;68.33
67397;BME280;57728;50.448;18.824;2023-11-22T10:39:08;98725.59;;;1.18;68.48
67397;BME280;57728;50.448;18.824;2023-11-22T10:41:10;98788.56;;;1.50;68.52
67397;BME280;57728;50.448;18.824;2023-11-22T10:43:13;98772.88;;;1.37;68.44
67397;BME280;57728;50.448;18.824;2023-11-22T10:45:15;98760.53;;;1.26;68.40
67397;BME280;57728;50.448;18.824;2023-11-22T10:47:18;98772.03;;;1.36;68.68
67397;BME280;57728;50.448;18.824;2023-11-22T10:49:21;98763.97;;;1.36;68.71